Time;durP1;ratioP1;P1;durP2;ratioP2;P2;SDS_P1;SDS_P2;PMS_P1;PMS_P2;Temp;Humidity;BMP_temperature;BMP_pressure;BME280_temperature;BME280_humidity;BME280_pressure;Samples;Min_cycle;Max_cycle;Signal;HPM_P1;HPM_P2
2022/09/24 00:00:41;;;;;;;16.07;14.77;;;10.70;99.90;;;;;;4946311;28;20207;-78
2022/09/24 00:03:08;;;;;;;16.30;14.70;;;10.80;99.90;;;;;;4944544;29;20215;-78
2022/09/24 00:05:38;;;;;;;15.87;14.47;;;10.80;99.90;;;;;;4949573;29;20201;-78
2022/09/24 00:08:06;;;;;;;16.73;15.13;;;10.80;99.90;;;;;;4943690;29;20608;-78
2022/09/24 00:10:37;;;;;;;16.63;15.13;;;10.90;99.90;;;;;;4939243;29;20199;-78
2022/09/24 00:13:05;;;;;;;15.23;13.93;;;11.00;99.90;;;;;;4950416;29;20719;-78
2022/09/24 00:15:36;;;;;;;16.20;14.80;;;11.00;99.90;;;;;;4943082;29;20271;-78
2022/09/24 00:18:03;;;;;;;15.13;13.93;;;11.00;99.90;;;;;;4939392;29;20264;-78
2022/09/24 00:20:30;;;;;;;16.57;15.00;;;11.00;99.90;;;;;;4948207;29;20291;-78
2022/09/24 00:22:57;;;;;;;15.23;13.93;;;11.00;99.90;;;;;;4938600;29;20217;-78
2022/09/24 00:28:16;;;;;;;14.30;13.20;;;10.90;99.90;;;;;;4875300;28;20202;-78
2022/09/24 00:30:44;;;;;;;16.53;15.13;;;10.90;99.90;;;;;;4944942;29;20204;-78
2022/09/24 00:33:11;;;;;;;16.10;14.67;;;10.90;99.90;;;;;;4945110;29;20255;-78
2022/09/24 00:35:40;;;;;;;14.67;13.40;;;10.90;99.90;;;;;;4946130;29;20204;-78
2022/09/24 00:38:07;;;;;;;14.87;13.63;;;10.90;99.90;;;;;;4945034;29;20219;-78
2022/09/24 00:40:38;;;;;;;14.27;13.07;;;10.90;99.90;;;;;;4942305;29;20513;-78
2022/09/24 00:43:25;;;;;;;16.23;14.80;;;10.90;99.90;;;;;;4947002;29;20238;-78
2022/09/24 00:45:54;;;;;;;15.63;14.13;;;10.80;99.90;;;;;;4946406;29;20674;-78
2022/09/24 00:48:21;;;;;;;14.80;13.60;;;10.80;99.90;;;;;;4944394;29;20674;-78
2022/09/24 00:50:48;;;;;;;14.83;13.50;;;10.70;99.90;;;;;;4946222;29;20267;-78
2022/09/24 00:53:18;;;;;;;15.03;13.73;;;10.70;99.90;;;;;;4943909;29;20259;-78
2022/09/24 00:55:49;;;;;;;15.40;14.20;;;10.70;99.90;;;;;;4947802;29;20210;-78
2022/09/24 00:58:17;;;;;;;16.23;14.77;;;10.70;99.90;;;;;;4948960;29;20203;-78
2022/09/24 01:00:46;;;;;;;15.40;14.10;;;10.70;99.90;;;;;;4940867;29;20670;-78
2022/09/24 01:03:15;;;;;;;15.80;14.50;;;10.70;99.90;;;;;;4947628;28;20219;-78
2022/09/24 01:08:43;;;;;;;16.00;14.60;;;10.70;99.90;;;;;;4898792;29;20792;-82
2022/09/24 01:11:22;;;;;;;15.23;13.93;;;10.70;99.90;;;;;;4882259;29;20198;-82
2022/09/24 01:14:25;;;;;;;14.93;13.63;;;10.70;99.90;;;;;;4900614;29;20202;-82
2022/09/24 01:16:59;;;;;;;13.83;12.73;;;10.70;99.90;;;;;;4895813;29;20705;-81
2022/09/24 01:19:56;;;;;;;15.03;13.73;;;10.80;99.90;;;;;;4898628;29;20200;-81
2022/09/24 01:22:35;;;;;;;13.90;12.70;;;10.80;99.90;;;;;;4895506;29;20217;-82
2022/09/24 01:25:07;;;;;;;13.57;12.47;;;10.80;99.90;;;;;;4898236;29;20675;-82
2022/09/24 01:27:57;;;;;;;14.10;13.00;;;10.80;99.90;;;;;;4899578;29;20208;-82
2022/09/24 01:30:31;;;;;;;14.37;13.17;;;10.70;99.90;;;;;;4882018;29;20213;-81
2022/09/24 01:33:03;;;;;;;14.87;13.57;;;10.70;99.90;;;;;;4897687;29;20217;-82
2022/09/24 01:35:32;;;;;;;13.97;12.67;;;10.60;99.90;;;;;;4888296;29;20206;-82
2022/09/24 01:38:03;;;;;;;14.30;13.00;;;10.50;99.90;;;;;;4899266;29;20661;-81
2022/09/24 01:40:31;;;;;;;14.53;13.20;;;10.50;99.90;;;;;;4883643;29;20204;-81
2022/09/24 01:42:59;;;;;;;13.33;12.23;;;10.40;99.90;;;;;;4885633;29;20225;-82
2022/09/24 01:45:30;;;;;;;13.50;12.50;;;10.40;99.90;;;;;;4902188;29;20253;-82
2022/09/24 01:47:59;;;;;;;14.77;13.57;;;10.30;99.90;;;;;;4892557;29;20231;-82
2022/09/24 01:50:31;;;;;;;14.63;13.43;;;10.30;99.90;;;;;;4897244;29;20220;-82
2022/09/24 01:53:02;;;;;;;14.33;13.13;;;10.30;99.90;;;;;;4900721;29;20229;-82
2022/09/24 01:55:33;;;;;;;16.23;14.70;;;10.30;99.90;;;;;;4902282;29;20545;-82
2022/09/24 01:58:07;;;;;;;15.43;14.23;;;10.30;99.90;;;;;;4901760;29;20272;-82
2022/09/24 02:00:39;;;;;;;14.63;13.43;;;10.30;99.90;;;;;;4892989;29;20201;-82
2022/09/24 02:03:11;;;;;;;15.17;13.97;;;10.30;99.90;;;;;;4883494;29;20231;-81
2022/09/24 02:05:42;;;;;;;15.80;14.50;;;10.30;99.90;;;;;;4900144;29;20201;-81
2022/09/24 02:08:14;;;;;;;14.63;13.43;;;10.30;99.90;;;;;;4900146;29;20776;-82
2022/09/24 02:10:46;;;;;;;16.00;14.70;;;10.30;99.90;;;;;;4890983;29;20213;-81
2022/09/24 02:13:15;;;;;;;15.73;14.27;;;10.30;99.90;;;;;;4898693;29;20224;-82
2022/09/24 02:15:48;;;;;;;14.37;13.27;;;10.30;99.90;;;;;;4899015;29;20228;-82
2022/09/24 02:18:18;;;;;;;15.70;14.30;;;10.30;99.90;;;;;;4898995;29;20197;-82
2022/09/24 02:20:47;;;;;;;15.90;14.30;;;10.30;99.90;;;;;;4898513;29;20204;-82
2022/09/24 02:23:15;;;;;;;14.50;13.27;;;10.30;99.90;;;;;;4899599;29;20201;-81
2022/09/24 02:25:46;;;;;;;15.73;14.33;;;10.30;99.90;;;;;;4898579;29;20196;-82
2022/09/24 02:28:13;;;;;;;14.90;13.70;;;10.30;99.90;;;;;;4883226;29;20197;-81
2022/09/24 02:30:44;;;;;;;16.17;14.77;;;10.30;99.90;;;;;;4898548;29;20231;-82
2022/09/24 02:35:53;;;;;;;14.97;13.73;;;10.30;99.90;;;;;;4899425;29;20233;-82
2022/09/24 02:38:20;;;;;;;14.13;13.00;;;10.40;99.90;;;;;;4898398;29;20216;-82
2022/09/24 02:40:47;;;;;;;15.07;13.80;;;10.30;99.90;;;;;;4899358;29;20201;-82
2022/09/24 02:43:14;;;;;;;13.27;12.27;;;10.40;99.90;;;;;;4897795;29;20197;-82
2022/09/24 02:45:42;;;;;;;13.30;12.20;;;10.40;99.90;;;;;;4899803;29;20196;-81
2022/09/24 02:48:09;;;;;;;14.97;13.77;;;10.40;99.90;;;;;;4897987;29;20262;-82
2022/09/24 02:50:36;;;;;;;14.60;13.47;;;10.50;99.90;;;;;;4898057;29;20245;-81
2022/09/24 02:53:03;;;;;;;14.77;13.60;;;10.50;99.90;;;;;;4899436;29;20225;-84
2022/09/24 02:55:30;;;;;;;16.87;15.23;;;10.60;99.90;;;;;;4895378;29;20254;-82
2022/09/24 02:57:57;;;;;;;14.87;13.77;;;10.60;99.90;;;;;;4875356;29;20225;-82
2022/09/24 03:00:23;;;;;;;16.47;14.97;;;10.60;99.90;;;;;;4881476;29;20213;-82
2022/09/24 03:02:51;;;;;;;14.63;13.43;;;10.60;99.90;;;;;;4898429;29;20767;-79
2022/09/24 03:05:18;;;;;;;15.77;14.23;;;10.60;99.90;;;;;;4908828;29;20207;-79
2022/09/24 03:07:45;;;;;;;14.90;13.63;;;10.60;99.90;;;;;;4914590;29;20221;-79
2022/09/24 03:10:12;;;;;;;15.50;14.30;;;10.60;99.90;;;;;;4898047;29;20200;-79
2022/09/24 03:12:42;;;;;;;14.50;13.40;;;10.70;99.90;;;;;;4901574;29;20647;-80
2022/09/24 03:15:10;;;;;;;15.23;14.07;;;10.70;99.90;;;;;;4881832;29;20296;-80
2022/09/24 03:17:37;;;;;;;14.87;13.73;;;10.80;99.90;;;;;;4897359;29;20209;-80
2022/09/24 03:20:06;;;;;;;15.60;14.40;;;10.80;99.90;;;;;;4898855;29;20260;-80
2022/09/24 03:22:33;;;;;;;15.20;13.90;;;10.80;99.90;;;;;;4901731;29;20196;-79
2022/09/24 03:25:02;;;;;;;15.60;14.33;;;10.80;99.90;;;;;;4899448;29;20208;-79
2022/09/24 03:27:28;;;;;;;15.63;14.27;;;10.80;99.90;;;;;;4897557;29;20224;-80
2022/09/24 03:32:39;;;;;;;14.43;13.43;;;10.90;99.90;;;;;;4902788;29;20237;-80
2022/09/24 03:35:09;;;;;;;16.13;14.70;;;10.80;99.90;;;;;;4906426;29;20210;-79
2022/09/24 03:37:36;;;;;;;15.23;14.03;;;10.80;99.90;;;;;;4906644;29;20212;-79
2022/09/24 03:40:04;;;;;;;15.33;14.03;;;10.80;99.90;;;;;;4898478;29;20197;-82
2022/09/24 03:42:32;;;;;;;15.10;13.90;;;10.80;99.90;;;;;;4902597;29;20204;-80
2022/09/24 03:44:58;;;;;;;15.17;14.07;;;10.80;99.90;;;;;;4886251;29;20662;-79
2022/09/24 03:47:25;;;;;;;16.03;14.73;;;10.80;99.90;;;;;;4903544;29;20276;-80
2022/09/24 03:49:53;;;;;;;15.33;14.03;;;10.70;99.90;;;;;;4900107;29;20261;-80
2022/09/24 03:52:21;;;;;;;15.70;14.33;;;10.80;99.90;;;;;;4904003;29;20220;-79
2022/09/24 03:54:48;;;;;;;16.83;15.33;;;10.80;99.90;;;;;;4885958;29;20617;-80
2022/09/24 03:57:14;;;;;;;15.40;14.07;;;10.80;99.90;;;;;;4902558;29;20229;-80
2022/09/24 03:59:41;;;;;;;15.93;14.63;;;10.80;99.90;;;;;;4902605;29;20570;-80
2022/09/24 04:02:08;;;;;;;16.87;15.47;;;10.80;99.90;;;;;;4903854;29;20207;-80
2022/09/24 04:04:35;;;;;;;14.93;13.73;;;10.80;99.90;;;;;;4900392;29;20209;-79
2022/09/24 04:07:02;;;;;;;15.80;14.40;;;10.80;99.90;;;;;;4898254;29;20228;-80
2022/09/24 04:09:33;;;;;;;14.83;13.53;;;10.80;99.90;;;;;;4901384;29;20265;-79
2022/09/24 04:12:00;;;;;;;14.70;13.50;;;10.80;99.90;;;;;;4899593;29;20222;-79
2022/09/24 04:14:27;;;;;;;15.23;14.00;;;10.80;99.90;;;;;;4909885;29;20269;-80
2022/09/24 04:16:53;;;;;;;15.23;13.93;;;10.80;99.90;;;;;;4904284;29;20782;-79
2022/09/24 04:19:20;;;;;;;15.47;14.17;;;10.90;99.90;;;;;;4902717;29;20667;-80
2022/09/24 04:21:47;;;;;;;16.10;14.83;;;10.90;99.90;;;;;;4901649;29;20201;-80
2022/09/24 04:24:14;;;;;;;16.00;14.67;;;10.90;99.90;;;;;;4899980;29;20205;-80
2022/09/24 04:26:42;;;;;;;17.00;15.47;;;10.90;99.90;;;;;;4900877;29;20248;-79
2022/09/24 04:29:09;;;;;;;15.67;14.33;;;10.90;99.90;;;;;;4898886;29;20198;-79
2022/09/24 04:31:38;;;;;;;15.57;14.27;;;10.90;99.90;;;;;;4898672;29;20610;-79
2022/09/24 04:34:05;;;;;;;14.77;13.63;;;10.90;99.90;;;;;;4903708;29;20314;-81
2022/09/24 04:36:31;;;;;;;14.97;13.87;;;10.90;99.90;;;;;;4883237;29;20769;-81
2022/09/24 04:38:58;;;;;;;15.83;14.57;;;10.90;99.90;;;;;;4902360;29;20590;-82
2022/09/24 04:41:25;;;;;;;16.10;14.77;;;10.90;99.90;;;;;;4898853;29;20229;-81
2022/09/24 04:43:53;;;;;;;15.37;14.20;;;10.90;99.90;;;;;;4898854;29;20618;-80
2022/09/24 04:46:20;;;;;;;14.77;13.63;;;10.90;99.90;;;;;;4898376;29;20285;-80
2022/09/24 04:48:47;;;;;;;14.13;13.13;;;10.90;99.90;;;;;;4897437;29;20205;-80
2022/09/24 04:51:15;;;;;;;15.20;14.00;;;10.90;99.90;;;;;;4896965;29;20232;-80
2022/09/24 04:53:42;;;;;;;14.50;13.40;;;10.80;99.90;;;;;;4897337;29;20714;-79
2022/09/24 04:56:10;;;;;;;15.17;13.87;;;10.90;99.90;;;;;;4881278;29;20281;-81
2022/09/24 04:58:37;;;;;;;15.00;13.87;;;10.90;99.90;;;;;;4892196;29;20209;-80
2022/09/24 05:01:06;;;;;;;14.97;13.87;;;10.90;99.90;;;;;;4900201;29;20204;-82
2022/09/24 05:03:32;;;;;;;14.07;13.03;;;10.90;99.90;;;;;;4887307;29;20289;-82
2022/09/24 05:06:00;;;;;;;13.97;12.97;;;10.90;99.90;;;;;;4874838;29;20207;-82
2022/09/24 05:08:27;;;;;;;14.80;13.67;;;11.00;99.90;;;;;;4873724;29;20544;-83
2022/09/24 05:10:54;;;;;;;13.90;12.90;;;11.10;99.90;;;;;;4894485;29;20197;-82
2022/09/24 05:13:21;;;;;;;13.83;12.83;;;11.10;99.90;;;;;;4881697;29;20216;-82
2022/09/24 05:15:48;;;;;;;13.80;12.77;;;11.10;99.90;;;;;;4901524;29;20202;-82
2022/09/24 05:18:16;;;;;;;13.60;12.50;;;11.10;99.90;;;;;;4901018;29;20195;-82
2022/09/24 05:20:43;;;;;;;13.20;12.20;;;11.10;99.90;;;;;;4899681;29;20295;-82
2022/09/24 05:23:10;;;;;;;14.03;12.83;;;11.20;99.90;;;;;;4884315;29;20205;-82
2022/09/24 05:27:07;;;;;;;13.87;12.87;;;11.20;99.90;;;;;;4901441;29;20256;-82
2022/09/24 05:28:22;;;;;;;13.57;12.50;;;11.20;99.90;;;;;;4900969;29;20200;-82
2022/09/24 05:30:49;;;;;;;13.90;12.80;;;11.20;99.90;;;;;;4899676;29;20201;-82
2022/09/24 05:33:17;;;;;;;14.43;13.30;;;11.30;99.90;;;;;;4883460;29;20233;-79
2022/09/24 05:35:47;;;;;;;13.60;12.50;;;11.30;99.90;;;;;;4900725;29;20199;-80
2022/09/24 05:38:14;;;;;;;14.50;13.40;;;11.30;99.90;;;;;;4901819;29;20202;-80
2022/09/24 05:40:48;;;;;;;13.77;12.67;;;11.30;99.90;;;;;;4901709;29;20202;-81
2022/09/24 05:43:15;;;;;;;14.53;13.33;;;11.30;99.90;;;;;;4899498;29;20271;-81
2022/09/24 05:45:44;;;;;;;15.03;13.83;;;11.30;99.90;;;;;;4899720;29;20241;-81
2022/09/24 05:48:10;;;;;;;14.83;13.63;;;11.30;99.90;;;;;;4899602;29;20206;-81
2022/09/24 05:50:39;;;;;;;14.37;13.27;;;11.30;99.90;;;;;;4900521;29;20194;-81
2022/09/24 05:53:06;;;;;;;15.67;14.50;;;11.30;99.90;;;;;;4900459;29;20214;-81
2022/09/24 05:55:33;;;;;;;15.67;14.47;;;11.30;99.90;;;;;;4899481;29;20218;-81
2022/09/24 05:58:03;;;;;;;15.47;14.37;;;11.30;99.90;;;;;;4901017;29;20300;-81
2022/09/24 06:00:30;;;;;;;16.60;15.33;;;11.30;99.90;;;;;;4893409;29;20746;-81
2022/09/24 06:03:02;;;;;;;17.07;15.67;;;11.30;99.90;;;;;;4880095;29;20602;-82
2022/09/24 06:05:29;;;;;;;15.50;14.30;;;11.30;99.90;;;;;;4881650;29;20675;-81
2022/09/24 06:07:57;;;;;;;16.13;14.93;;;11.40;99.90;;;;;;4900583;29;20251;-81
2022/09/24 06:10:24;;;;;;;15.30;14.17;;;11.40;99.90;;;;;;4898695;29;20313;-81
2022/09/24 06:12:52;;;;;;;15.57;14.37;;;11.40;99.90;;;;;;4899255;29;20682;-81
2022/09/24 06:15:22;;;;;;;15.23;14.10;;;11.40;99.90;;;;;;4883342;29;20297;-81
2022/09/24 06:17:49;;;;;;;15.37;14.23;;;11.50;99.90;;;;;;4900254;29;20274;-81
2022/09/24 06:20:15;;;;;;;12.37;11.27;;;11.60;99.90;;;;;;4898516;29;20727;-81
2022/09/24 06:22:42;;;;;;;13.50;12.37;;;11.60;99.90;;;;;;4900395;29;20262;-82
2022/09/24 06:25:10;;;;;;;8.00;7.00;;;11.80;99.90;;;;;;4885215;29;20227;-82
2022/09/24 06:27:37;;;;;;;8.60;7.50;;;11.80;99.90;;;;;;4906395;29;20231;-82
2022/09/24 06:30:05;;;;;;;8.17;7.00;;;11.90;99.90;;;;;;4888867;29;20209;-80
2022/09/24 06:32:32;;;;;;;8.40;7.20;;;12.10;99.90;;;;;;4883420;29;20654;-79
2022/09/24 06:34:59;;;;;;;7.83;6.90;;;12.10;99.90;;;;;;4885388;29;20235;-82
2022/09/24 06:37:26;;;;;;;8.13;7.33;;;12.20;99.90;;;;;;4886876;29;20223;-80
2022/09/24 06:39:53;;;;;;;10.83;7.70;;;12.20;99.90;;;;;;4899126;29;20209;-81
2022/09/24 06:42:21;;;;;;;8.40;7.10;;;12.30;99.90;;;;;;4903675;29;20207;-80
2022/09/24 06:44:48;;;;;;;8.43;7.10;;;12.30;99.90;;;;;;4894974;29;20620;-81
2022/09/24 06:47:15;;;;;;;7.73;6.37;;;12.40;99.90;;;;;;4902398;29;20244;-80
2022/09/24 06:49:41;;;;;;;8.30;7.07;;;12.40;99.90;;;;;;4901600;29;20204;-80
2022/09/24 06:52:08;;;;;;;7.67;6.50;;;12.50;99.90;;;;;;4904556;29;20205;-80
2022/09/24 06:54:35;;;;;;;7.83;7.03;;;12.60;99.90;;;;;;4915857;29;20625;-80
2022/09/24 06:57:03;;;;;;;7.60;6.80;;;12.70;99.90;;;;;;4902332;29;20223;-85
2022/09/24 06:59:31;;;;;;;7.30;6.17;;;12.90;99.90;;;;;;4884789;29;20849;-80
2022/09/24 07:01:58;;;;;;;6.80;5.63;;;13.00;99.90;;;;;;4900689;29;20259;-80
2022/09/24 07:04:25;;;;;;;8.03;7.40;;;13.10;99.90;;;;;;4902884;29;20196;-80
2022/09/24 07:09:39;;;;;;;6.20;5.60;;;13.30;99.90;;;;;;4897666;29;20224;-82
2022/09/24 07:12:07;;;;;;;7.47;5.70;;;13.20;99.90;;;;;;4902430;29;20231;-81
2022/09/24 07:14:36;;;;;;;6.27;5.37;;;13.20;99.90;;;;;;4912071;29;20694;-80
2022/09/24 07:17:03;;;;;;;6.27;5.30;;;13.20;99.90;;;;;;4900816;29;20216;-80
2022/09/24 07:19:29;;;;;;;6.00;5.03;;;13.20;99.90;;;;;;4900062;29;20200;-80
2022/09/24 07:21:56;;;;;;;5.87;5.27;;;13.30;99.90;;;;;;4899730;29;20200;-80
2022/09/24 07:24:23;;;;;;;6.97;5.50;;;13.30;99.90;;;;;;4900144;29;20201;-82
2022/09/24 07:26:50;;;;;;;6.87;5.87;;;13.40;99.90;;;;;;4900021;29;20220;-80
2022/09/24 07:29:17;;;;;;;9.33;8.60;;;13.40;99.90;;;;;;4899142;29;20201;-79
2022/09/24 07:31:45;;;;;;;11.83;11.03;;;13.50;99.90;;;;;;4898564;29;20287;-80
2022/09/24 07:34:13;;;;;;;6.90;5.83;;;13.60;99.90;;;;;;4900620;29;20282;-80
2022/09/24 07:36:40;;;;;;;6.47;5.87;;;13.70;99.90;;;;;;4898090;29;20228;-80
2022/09/24 07:39:07;;;;;;;7.47;6.50;;;13.70;99.90;;;;;;4899502;29;20235;-81
2022/09/24 07:41:34;;;;;;;9.40;8.60;;;13.80;99.90;;;;;;4898005;29;20264;-80
2022/09/24 07:44:01;;;;;;;5.93;5.43;;;13.90;99.90;;;;;;4882963;29;20591;-81
2022/09/24 07:46:28;;;;;;;6.13;5.53;;;13.90;99.90;;;;;;4897116;29;20220;-79
2022/09/24 07:48:56;;;;;;;6.80;6.10;;;14.00;99.90;;;;;;4883509;29;20208;-80
2022/09/24 07:51:24;;;;;;;6.37;5.77;;;14.00;99.90;;;;;;4900669;29;20275;-81
2022/09/24 07:53:51;;;;;;;6.73;5.73;;;14.10;99.90;;;;;;4898425;29;20216;-79
2022/09/24 07:56:18;;;;;;;6.67;6.07;;;14.10;99.90;;;;;;4900233;29;20273;-78
2022/09/24 07:58:48;;;;;;;6.47;5.87;;;14.10;99.90;;;;;;4899755;29;20201;-78
2022/09/24 08:01:15;;;;;;;6.73;6.00;;;14.20;99.90;;;;;;4896127;29;20200;-79
2022/09/24 08:03:42;;;;;;;6.80;6.10;;;14.20;99.90;;;;;;4897494;29;20196;-79
2022/09/24 08:06:10;;;;;;;6.33;5.73;;;14.30;99.90;;;;;;4897168;29;20233;-79
2022/09/24 08:08:38;;;;;;;12.37;11.57;;;14.30;99.90;;;;;;4896872;29;20213;-80
2022/09/24 08:11:06;;;;;;;7.30;6.57;;;14.30;99.90;;;;;;4904051;29;20620;-80
2022/09/24 08:13:33;;;;;;;6.50;5.90;;;14.30;99.90;;;;;;4897873;29;20672;-80
2022/09/24 08:16:01;;;;;;;10.17;9.33;;;14.40;99.90;;;;;;4899677;29;20255;-80
2022/09/24 08:18:30;;;;;;;6.83;5.83;;;14.30;99.90;;;;;;4892211;29;20286;-80
2022/09/24 08:20:58;;;;;;;12.40;11.50;;;14.30;99.90;;;;;;4889184;29;20568;-80
2022/09/24 08:23:27;;;;;;;6.40;5.70;;;14.20;99.90;;;;;;4877347;29;20220;-81
2022/09/24 08:25:54;;;;;;;7.10;6.50;;;14.30;99.90;;;;;;4911877;29;20192;-81
2022/09/24 08:28:21;;;;;;;10.63;9.73;;;14.30;99.90;;;;;;4901017;29;20215;-81
2022/09/24 08:30:48;;;;;;;6.50;5.87;;;14.40;99.90;;;;;;4896478;29;20201;-80
2022/09/24 08:33:15;;;;;;;13.30;12.30;;;14.50;99.90;;;;;;4893201;29;20229;-80
2022/09/24 08:35:41;;;;;;;14.43;13.23;;;14.50;99.90;;;;;;4897038;29;20276;-81
2022/09/24 08:38:09;;;;;;;12.80;11.80;;;14.60;99.90;;;;;;4882628;29;20650;-80
2022/09/24 08:40:43;;;;;;;14.00;12.90;;;14.70;99.90;;;;;;4882854;29;20201;-81
2022/09/24 08:43:23;;;;;;;14.07;13.07;;;14.80;99.90;;;;;;4895274;29;20211;-82
2022/09/24 08:48:44;;;;;;;14.37;13.27;;;14.80;99.90;;;;;;4880955;29;20257;-81
2022/09/24 08:51:15;;;;;;;13.67;12.50;;;14.90;99.90;;;;;;4880468;29;20269;-81
2022/09/24 08:53:47;;;;;;;13.47;12.47;;;14.90;99.90;;;;;;4896600;29;20259;-80
2022/09/24 08:56:20;;;;;;;13.60;12.60;;;14.90;99.90;;;;;;4896970;29;20719;-80
2022/09/24 08:58:52;;;;;;;12.73;11.83;;;14.90;99.90;;;;;;4897701;29;20213;-81
2022/09/24 09:01:28;;;;;;;8.67;7.77;;;15.00;99.90;;;;;;4879071;29;20271;-81
2022/09/24 09:04:02;;;;;;;7.17;6.47;;;14.90;99.90;;;;;;4899414;29;20262;-81
2022/09/24 09:06:52;;;;;;;7.20;6.50;;;14.90;99.90;;;;;;4896670;29;20603;-81
2022/09/24 09:09:23;;;;;;;8.73;6.77;;;14.90;99.90;;;;;;4880731;29;20217;-81
2022/09/24 09:11:56;;;;;;;13.10;12.10;;;14.90;99.90;;;;;;4894964;29;20208;-79
2022/09/24 09:14:30;;;;;;;13.63;12.73;;;14.90;99.90;;;;;;4897125;29;20214;-80
2022/09/24 09:17:01;;;;;;;13.63;12.60;;;14.90;99.90;;;;;;4899273;29;20273;-77
2022/09/24 09:19:33;;;;;;;12.90;11.90;;;15.00;99.90;;;;;;4893179;29;20214;-85
2022/09/24 09:22:05;;;;;;;13.67;12.67;;;15.00;99.90;;;;;;4880679;29;20729;-80
2022/09/24 09:28:02;;;;;;;12.57;11.53;;;15.00;99.90;;;;;;4881224;29;20364;-82
2022/09/24 09:30:38;;;;;;;11.87;11.07;;;15.00;99.90;;;;;;4898925;29;20568;-78
2022/09/24 09:33:20;;;;;;;12.63;11.73;;;15.00;99.90;;;;;;4878665;29;20574;-81
2022/09/24 09:35:55;;;;;;;12.60;11.70;;;15.00;99.90;;;;;;4877016;29;20239;-80
2022/09/24 09:38:29;;;;;;;12.03;11.23;;;15.00;99.90;;;;;;4890879;29;21139;-82
2022/09/24 09:41:02;;;;;;;12.60;11.67;;;15.00;99.90;;;;;;4887860;29;20573;-79
2022/09/24 09:43:30;;;;;;;12.47;11.50;;;15.00;99.90;;;;;;4888973;29;20209;-80
2022/09/24 09:46:07;;;;;;;11.50;10.63;;;15.10;99.90;;;;;;4891247;29;20260;-80
2022/09/24 09:48:44;;;;;;;11.83;11.00;;;15.10;99.90;;;;;;4887404;29;20208;-80
2022/09/24 09:51:19;;;;;;;11.30;10.43;;;15.10;99.90;;;;;;4899513;29;20920;-80
2022/09/24 09:53:55;;;;;;;10.77;9.97;;;15.00;99.90;;;;;;4894629;29;20206;-79
2022/09/24 09:56:25;;;;;;;10.73;9.93;;;15.00;99.90;;;;;;4898195;29;20290;-79
2022/09/24 09:59:20;;;;;;;11.47;10.67;;;14.90;99.90;;;;;;4901836;29;20197;-79
2022/09/24 10:01:48;;;;;;;11.57;10.57;;;15.00;99.90;;;;;;4877323;29;20334;-78
2022/09/24 10:04:36;;;;;;;11.17;10.47;;;15.00;99.90;;;;;;4900405;29;20203;-78
2022/09/24 10:07:08;;;;;;;11.60;10.70;;;15.10;99.90;;;;;;4899379;29;20225;-80
2022/09/24 10:09:35;;;;;;;11.47;10.67;;;15.10;99.90;;;;;;4889484;29;20212;-79
2022/09/24 10:12:09;;;;;;;11.50;10.60;;;15.20;99.90;;;;;;4903888;29;20278;-79
2022/09/24 10:14:37;;;;;;;11.43;10.63;;;15.40;99.90;;;;;;4885375;29;20214;-80
2022/09/24 10:17:05;;;;;;;12.00;11.30;;;15.50;99.90;;;;;;4882830;29;20290;-80
2022/09/24 10:19:37;;;;;;;10.93;10.13;;;15.60;99.90;;;;;;4899841;29;20205;-79
2022/09/24 10:22:11;;;;;;;3.83;3.53;;;15.70;99.90;;;;;;4894830;29;20208;-78
2022/09/24 10:24:42;;;;;;;4.10;3.70;;;15.80;99.90;;;;;;4899992;29;20802;-79
2022/09/24 10:27:14;;;;;;;4.00;3.60;;;15.80;99.90;;;;;;4899460;29;20227;-79
2022/09/24 10:32:29;;;;;;;10.27;9.57;;;15.90;99.90;;;;;;4899539;29;20279;-79
2022/09/24 10:34:57;;;;;;;10.37;9.57;;;15.90;99.90;;;;;;4900321;29;20697;-79
2022/09/24 10:37:24;;;;;;;8.60;7.90;;;16.00;99.90;;;;;;4901765;29;20312;-79
2022/09/24 10:39:58;;;;;;;4.30;3.90;;;16.00;99.90;;;;;;4900434;29;20700;-78
2022/09/24 10:42:26;;;;;;;4.07;3.60;;;16.10;99.90;;;;;;4899983;29;20196;-79
2022/09/24 10:44:55;;;;;;;4.90;3.87;;;16.20;99.90;;;;;;4897696;29;20207;-79
2022/09/24 10:47:30;;;;;;;5.13;4.73;;;16.20;99.90;;;;;;4907341;29;20233;-80
2022/09/24 10:50:18;;;;;;;4.50;4.00;;;16.20;99.90;;;;;;4906955;29;20206;-80
2022/09/24 10:52:51;;;;;;;4.13;3.80;;;16.20;99.90;;;;;;4899548;29;20215;-80
2022/09/24 10:55:37;;;;;;;9.57;8.77;;;16.40;99.90;;;;;;4898487;29;20272;-79
2022/09/24 10:58:13;;;;;;;9.87;9.10;;;16.60;99.90;;;;;;4899592;29;20708;-81
2022/09/24 11:00:51;;;;;;;7.23;6.63;;;16.80;99.90;;;;;;4900654;29;20212;-80
2022/09/24 11:03:47;;;;;;;12.07;11.27;;;17.00;99.90;;;;;;4898830;29;20319;-79
2022/09/24 11:06:21;;;;;;;11.60;10.87;;;17.30;99.90;;;;;;4898111;29;20276;-80
2022/09/24 11:09:04;;;;;;;9.77;9.07;;;17.50;99.90;;;;;;4893820;29;20204;-78
2022/09/24 11:11:40;;;;;;;10.50;9.80;;;17.60;99.90;;;;;;4898611;29;20633;-80
2022/09/24 11:14:19;;;;;;;11.47;10.77;;;17.80;99.90;;;;;;4882336;29;20257;-81
2022/09/24 11:17:01;;;;;;;10.80;10.10;;;17.90;99.90;;;;;;4896279;29;20222;-81
2022/09/24 11:19:47;;;;;;;10.37;9.67;;;17.70;99.90;;;;;;4889594;29;20302;-79
2022/09/24 11:22:16;;;;;;;10.00;9.30;;;17.60;99.90;;;;;;4900386;29;20202;-80
2022/09/24 11:25:09;;;;;;;10.10;9.40;;;17.60;99.90;;;;;;4898726;29;20205;-81
2022/09/24 11:27:48;;;;;;;10.17;9.47;;;17.50;99.90;;;;;;4890241;29;20867;-80
2022/09/24 11:30:17;;;;;;;9.43;8.73;;;17.50;99.90;;;;;;4898070;29;20288;-80
2022/09/24 11:33:00;;;;;;;7.80;7.27;;;17.50;99.90;;;;;;4896845;29;20261;-80
2022/09/24 11:35:58;;;;;;;9.70;9.00;;;17.50;99.90;;;;;;4896994;29;20324;-80
2022/09/24 11:38:41;;;;;;;9.03;8.43;;;17.60;99.90;;;;;;4849084;29;20641;-79
2022/09/24 11:41:20;;;;;;;10.40;9.70;;;17.60;99.90;;;;;;4881880;29;20203;-81
2022/09/24 11:44:04;;;;;;;10.17;9.53;;;17.50;99.90;;;;;;4894618;29;20210;-80
2022/09/24 11:46:46;;;;;;;10.70;9.80;;;17.50;99.90;;;;;;4893354;29;20265;-80
2022/09/24 11:49:41;;;;;;;11.10;10.20;;;17.50;99.90;;;;;;4881106;29;20213;-81
2022/09/24 11:52:13;;;;;;;10.50;9.70;;;17.40;99.90;;;;;;4897352;29;20270;-81
2022/09/24 11:54:46;;;;;;;10.40;9.70;;;17.20;99.90;;;;;;4898690;29;20210;-79
2022/09/24 11:57:19;;;;;;;9.10;8.50;;;17.30;99.90;;;;;;4896576;29;20257;-81
2022/09/24 11:59:53;;;;;;;10.40;9.57;;;17.30;99.90;;;;;;4881043;29;20213;-78
2022/09/24 12:02:24;;;;;;;10.47;9.60;;;17.30;99.90;;;;;;4897807;29;20212;-80
2022/09/24 12:05:00;;;;;;;8.07;7.47;;;17.30;99.90;;;;;;4898658;29;20208;-79
2022/09/24 12:07:33;;;;;;;9.93;9.33;;;17.30;99.90;;;;;;4890188;29;20220;-80
2022/09/24 12:10:03;;;;;;;6.20;5.70;;;17.40;99.90;;;;;;4877939;29;20201;-79
2022/09/24 12:12:35;;;;;;;3.80;3.50;;;17.50;99.90;;;;;;4895792;29;20209;-79
2022/09/24 12:15:09;;;;;;;3.50;3.20;;;17.60;99.90;;;;;;4902096;29;20221;-81
2022/09/24 12:17:42;;;;;;;8.87;8.27;;;17.70;99.90;;;;;;4908227;29;20221;-79
2022/09/24 12:20:19;;;;;;;5.23;3.80;;;17.60;99.90;;;;;;4907753;29;20689;-79
2022/09/24 12:22:48;;;;;;;3.67;3.27;;;17.50;99.90;;;;;;4897859;29;20666;-79
2022/09/24 12:25:15;;;;;;;6.20;5.70;;;17.40;99.90;;;;;;4897371;29;20200;-80
2022/09/24 12:27:44;;;;;;;10.50;9.70;;;17.30;99.90;;;;;;4902197;29;20223;-80
2022/09/24 12:33:18;;;;;;;8.70;8.10;;;17.10;99.90;;;;;;4892987;29;20239;-79
2022/09/24 12:36:05;;;;;;;9.27;8.67;;;16.80;99.90;;;;;;4877462;29;20890;-79
2022/09/24 12:38:35;;;;;;;7.03;6.53;;;16.60;99.90;;;;;;4873691;29;20258;-82
2022/09/24 12:41:18;;;;;;;10.13;9.33;;;16.40;99.90;;;;;;4896925;29;20197;-79
2022/09/24 12:43:49;;;;;;;11.00;10.30;;;16.30;99.90;;;;;;4897049;29;20201;-78
2022/09/24 12:46:20;;;;;;;5.20;4.07;;;16.10;99.90;;;;;;4896029;29;20690;-79
2022/09/24 12:48:49;;;;;;;5.20;4.10;;;16.00;99.90;;;;;;4896113;29;20722;-78
2022/09/24 12:51:21;;;;;;;6.97;6.37;;;15.90;99.90;;;;;;4896723;29;20200;-78
2022/09/24 12:53:57;;;;;;;4.30;3.90;;;15.90;99.90;;;;;;4901535;29;20225;-79
2022/09/24 12:56:28;;;;;;;4.50;4.10;;;15.80;99.90;;;;;;4903460;29;20232;-81
2022/09/24 12:58:55;;;;;;;5.87;5.20;;;15.80;99.90;;;;;;4896383;29;20604;-79
2022/09/24 13:01:31;;;;;;;10.27;9.57;;;15.80;99.90;;;;;;4880875;29;20685;-79
2022/09/24 13:04:24;;;;;;;9.50;8.90;;;15.80;99.90;;;;;;4898043;29;20217;-79
2022/09/24 13:06:53;;;;;;;10.43;9.73;;;15.80;99.90;;;;;;4892972;29;20232;-79
2022/09/24 13:09:36;;;;;;;11.33;10.43;;;15.80;99.90;;;;;;4896491;29;20220;-78
2022/09/24 13:12:20;;;;;;;9.40;8.70;;;15.80;99.90;;;;;;4881532;29;20204;-79
2022/09/24 13:14:54;;;;;;;11.00;10.07;;;15.90;99.90;;;;;;4882726;29;20207;-80
2022/09/24 13:17:21;;;;;;;9.90;9.20;;;15.90;99.90;;;;;;4882668;29;21032;-79